createdAt,value
2022-10-26T00:01:24.844Z,97642.00
2022-10-26T00:03:57.849Z,97643.00
2022-10-26T00:06:28.839Z,97644.00
2022-10-26T00:08:58.638Z,97635.00
2022-10-26T00:11:26.766Z,97630.00
2022-10-26T00:13:54.925Z,97635.00
2022-10-26T00:16:27.012Z,97634.00
2022-10-26T00:18:56.566Z,97636.00
2022-10-26T00:21:24.944Z,97624.00
2022-10-26T00:23:53.253Z,97632.00
2022-10-26T00:26:21.435Z,97623.00
2022-10-26T00:28:49.612Z,97625.00
2022-10-26T00:31:18.615Z,97635.00
2022-10-26T00:33:47.020Z,97631.00
2022-10-26T00:36:17.062Z,97627.00
2022-10-26T00:38:50.386Z,97623.00
2022-10-26T00:41:21.737Z,97628.00
2022-10-26T00:43:50.399Z,97639.00
2022-10-26T00:46:23.920Z,97626.00
2022-10-26T00:48:57.724Z,97621.00
2022-10-26T00:51:33.527Z,97617.00
2022-10-26T00:54:06.721Z,97611.00
2022-10-26T00:56:36.625Z,97621.00
2022-10-26T00:59:08.986Z,97616.00
2022-10-26T01:01:41.932Z,97596.00
2022-10-26T01:04:10.640Z,97600.00
2022-10-26T01:06:42.387Z,97586.00
2022-10-26T01:09:11.876Z,97576.00
2022-10-26T01:11:40.081Z,97582.00
2022-10-26T01:14:13.470Z,97587.00
2022-10-26T01:20:22.426Z,97580.00
2022-10-26T01:23:00.287Z,97586.00
2022-10-26T01:26:07.024Z,97593.00
2022-10-26T01:28:59.444Z,97588.00
2022-10-26T01:31:40.212Z,97581.00
2022-10-26T01:34:14.421Z,97583.00
2022-10-26T01:36:52.355Z,97585.00
2022-10-26T01:39:29.824Z,97587.00
2022-10-26T01:42:02.923Z,97583.00
2022-10-26T01:44:39.597Z,97572.00
2022-10-26T01:47:12.311Z,97578.00
2022-10-26T01:49:46.892Z,97581.00
2022-10-26T01:52:15.047Z,97572.00
2022-10-26T01:54:43.130Z,97562.00
2022-10-26T01:57:15.745Z,97580.00
2022-10-26T02:00:06.787Z,97599.00
2022-10-26T02:03:04.355Z,97589.00
2022-10-26T02:06:00.975Z,97599.00
2022-10-26T02:08:55.830Z,97601.00
2022-10-26T02:11:39.206Z,97610.00
2022-10-26T02:14:21.135Z,97607.00
2022-10-26T02:16:58.094Z,97599.00
2022-10-26T02:19:41.483Z,97605.00
2022-10-26T02:22:17.869Z,97597.00
2022-10-26T02:24:49.039Z,97590.00
2022-10-26T02:27:25.682Z,97566.00
2022-10-26T02:29:58.221Z,97568.00
2022-10-26T02:32:35.020Z,97577.00
2022-10-26T02:35:07.079Z,97594.00
2022-10-26T02:37:38.250Z,97592.00
2022-10-26T02:40:15.182Z,97593.00
2022-10-26T02:42:47.278Z,97597.00
2022-10-26T02:45:22.061Z,97603.00
2022-10-26T02:47:51.546Z,97593.00
2022-10-26T02:50:28.955Z,97590.00
2022-10-26T02:53:09.136Z,97586.00
2022-10-26T02:55:47.740Z,97588.00
2022-10-26T02:58:23.907Z,97600.00
2022-10-26T03:00:53.721Z,97578.00
2022-10-26T03:03:23.190Z,97583.00
2022-10-26T03:05:52.904Z,97580.00
2022-10-26T03:08:21.069Z,97584.00
2022-10-26T03:10:49.240Z,97582.00
2022-10-26T03:13:17.347Z,97588.00
2022-10-26T03:15:45.443Z,97582.00
2022-10-26T03:18:13.568Z,97588.00
2022-10-26T03:20:44.536Z,97578.00
2022-10-26T03:23:13.995Z,97587.00
2022-10-26T03:25:42.107Z,97585.00
2022-10-26T03:28:10.648Z,97580.00
2022-10-26T03:30:38.815Z,97587.00
2022-10-26T03:33:06.911Z,97580.00
2022-10-26T03:35:35.094Z,97594.00
2022-10-26T03:38:03.216Z,97597.00
2022-10-26T03:40:32.779Z,97597.00
2022-10-26T03:43:00.920Z,97600.00
2022-10-26T03:45:29.185Z,97590.00
2022-10-26T03:47:57.358Z,97585.00
2022-10-26T03:50:25.482Z,97591.00
2022-10-26T03:52:53.566Z,97579.00
2022-10-26T03:55:21.642Z,97590.00
2022-10-26T03:57:51.076Z,97592.00
2022-10-26T04:00:19.775Z,97584.00
2022-10-26T04:02:57.282Z,97569.00
2022-10-26T04:05:26.486Z,97569.00
2022-10-26T04:07:55.616Z,97579.00
2022-10-26T04:10:24.574Z,97574.00
2022-10-26T04:12:54.755Z,97584.00
2022-10-26T04:15:23.798Z,97579.00
2022-10-26T04:17:58.032Z,97580.00
2022-10-26T04:20:27.428Z,97566.00
2022-10-26T04:23:00.509Z,97575.00
2022-10-26T04:25:32.708Z,97585.00
2022-10-26T04:28:05.186Z,97578.00
2022-10-26T04:30:35.290Z,97583.00
2022-10-26T04:33:03.648Z,97598.00
2022-10-26T04:35:32.844Z,97614.00
2022-10-26T04:38:02.418Z,97617.00
2022-10-26T04:40:31.894Z,97606.00
2022-10-26T04:43:00.418Z,97601.00
2022-10-26T04:45:30.846Z,97612.00
2022-10-26T04:48:04.714Z,97603.00
2022-10-26T04:50:33.269Z,97613.00
2022-10-26T04:53:05.245Z,97604.00
2022-10-26T04:55:33.410Z,97602.00
2022-10-26T04:58:02.163Z,97602.00
2022-10-26T05:00:32.845Z,97602.00
2022-10-26T05:03:01.395Z,97614.00
2022-10-26T05:05:29.988Z,97614.00
2022-10-26T05:07:58.703Z,97606.00
2022-10-26T05:10:28.028Z,97613.00
2022-10-26T05:12:58.017Z,97616.00
2022-10-26T05:15:26.841Z,97593.00
2022-10-26T05:18:02.710Z,97596.00
2022-10-26T05:20:34.284Z,97591.00
2022-10-26T05:23:05.237Z,97599.00
2022-10-26T05:25:36.894Z,97602.00
2022-10-26T05:28:07.973Z,97601.00
2022-10-26T05:30:36.392Z,97606.00
2022-10-26T05:33:07.449Z,97614.00
2022-10-26T05:35:35.646Z,97615.00
2022-10-26T05:38:09.477Z,97618.00
2022-10-26T05:40:37.898Z,97634.00
2022-10-26T05:43:06.170Z,97631.00
2022-10-26T05:45:34.250Z,97630.00
2022-10-26T05:48:03.009Z,97626.00
2022-10-26T05:50:33.038Z,97628.00
2022-10-26T05:53:01.118Z,97629.00
2022-10-26T05:55:30.206Z,97620.00
2022-10-26T05:57:59.455Z,97629.00
2022-10-26T06:00:30.355Z,97630.00
2022-10-26T06:06:06.683Z,97615.00
2022-10-26T06:08:36.316Z,97608.00
2022-10-26T06:11:05.244Z,97607.00
2022-10-26T06:13:34.317Z,97604.00
2022-10-26T06:16:25.756Z,97643.00
2022-10-26T06:19:08.662Z,97639.00
2022-10-26T06:22:01.226Z,97643.00
2022-10-26T06:24:41.726Z,97645.00
2022-10-26T06:27:29.492Z,97636.00
2022-10-26T06:30:02.664Z,97640.00
2022-10-26T06:32:31.214Z,97630.00
2022-10-26T06:35:14.652Z,97623.00
2022-10-26T06:37:46.337Z,97626.00
2022-10-26T06:40:17.724Z,97646.00
2022-10-26T06:42:46.698Z,97629.00
2022-10-26T06:45:18.118Z,97643.00
2022-10-26T06:47:58.408Z,97617.00
2022-10-26T06:50:37.382Z,97626.00
2022-10-26T06:53:28.232Z,97623.00
2022-10-26T06:56:00.017Z,97612.00
2022-10-26T06:58:33.676Z,97631.00
2022-10-26T07:01:03.055Z,97628.00
2022-10-26T07:03:31.256Z,97643.00
2022-10-26T07:05:59.716Z,97656.00
2022-10-26T07:08:30.815Z,97657.00
2022-10-26T07:10:59.031Z,97662.00
2022-10-26T07:13:27.116Z,97658.00
2022-10-26T07:15:55.208Z,97667.00
2022-10-26T07:18:23.364Z,97668.00
2022-10-26T07:20:51.422Z,97662.00
2022-10-26T07:23:19.561Z,97673.00
2022-10-26T07:25:49.024Z,97664.00
2022-10-26T07:28:17.196Z,97672.00
2022-10-26T07:30:45.275Z,97673.00
2022-10-26T07:33:15.113Z,97669.00
2022-10-26T07:35:43.463Z,97684.00
2022-10-26T07:38:14.384Z,97693.00
2022-10-26T07:40:42.549Z,97695.00
2022-10-26T07:43:11.959Z,97694.00
2022-10-26T07:45:40.532Z,97687.00
2022-10-26T07:48:08.823Z,97700.00
2022-10-26T07:50:36.957Z,97693.00
2022-10-26T07:53:05.099Z,97708.00
2022-10-26T07:55:33.239Z,97695.00
2022-10-26T07:58:01.838Z,97699.00
2022-10-26T08:00:31.579Z,97713.00
2022-10-26T08:02:59.776Z,97710.00
2022-10-26T08:05:27.903Z,97704.00
2022-10-26T08:07:56.018Z,97720.00
2022-10-26T08:10:24.084Z,97720.00
2022-10-26T08:12:54.906Z,97711.00
2022-10-26T08:15:23.073Z,97721.00
2022-10-26T08:17:52.745Z,97719.00
2022-10-26T08:20:21.334Z,97716.00
2022-10-26T08:22:49.822Z,97719.00
2022-10-26T08:25:20.558Z,97715.00
2022-10-26T08:27:49.881Z,97723.00
2022-10-26T08:30:18.511Z,97712.00
2022-10-26T08:32:46.838Z,97720.00
2022-10-26T08:35:16.672Z,97720.00
2022-10-26T08:37:44.711Z,97728.00
2022-10-26T08:40:18.200Z,97722.00
2022-10-26T08:42:51.810Z,97720.00
2022-10-26T08:45:36.620Z,97729.00
2022-10-26T08:48:13.116Z,97727.00
2022-10-26T08:50:49.713Z,97741.00
2022-10-26T08:53:24.586Z,97740.00
2022-10-26T08:56:00.003Z,97726.00
2022-10-26T08:58:37.552Z,97735.00
2022-10-26T09:01:06.351Z,97733.00
2022-10-26T09:03:34.504Z,97730.00
2022-10-26T09:06:26.784Z,97734.00
2022-10-26T09:09:07.830Z,97729.00
2022-10-26T09:11:56.635Z,97724.00
2022-10-26T09:14:44.689Z,97741.00
2022-10-26T09:17:22.866Z,97745.00
2022-10-26T09:20:16.203Z,97751.00
2022-10-26T09:22:58.368Z,97740.00
2022-10-26T09:25:36.541Z,97742.00
2022-10-26T09:28:05.023Z,97753.00
2022-10-26T09:30:35.169Z,97748.00
2022-10-26T09:33:15.241Z,97754.00
2022-10-26T09:35:50.085Z,97759.00
2022-10-26T09:38:29.193Z,97752.00
2022-10-26T09:41:05.664Z,97757.00
2022-10-26T09:43:44.433Z,97779.00
2022-10-26T09:46:22.495Z,97782.00
2022-10-26T09:48:57.045Z,97773.00
2022-10-26T09:51:27.134Z,97787.00
2022-10-26T09:54:00.924Z,97780.00
2022-10-26T09:56:31.675Z,97789.00
2022-10-26T09:59:06.186Z,97789.00
2022-10-26T10:01:39.908Z,97784.00
2022-10-26T10:04:20.352Z,97789.00
2022-10-26T10:06:51.060Z,97791.00
2022-10-26T10:09:23.117Z,97777.00
2022-10-26T10:11:56.502Z,97788.00
2022-10-26T10:14:28.176Z,97791.00
2022-10-26T10:16:59.953Z,97792.00
2022-10-26T10:19:30.854Z,97798.00
2022-10-26T10:22:01.871Z,97799.00
2022-10-26T10:24:33.665Z,97789.00
2022-10-26T10:27:05.396Z,97791.00
2022-10-26T10:29:40.676Z,97796.00
2022-10-26T10:32:17.495Z,97794.00
2022-10-26T10:34:45.768Z,97803.00
2022-10-26T10:37:27.008Z,97808.00
2022-10-26T10:40:02.987Z,97795.00
2022-10-26T10:42:34.897Z,97800.00
2022-10-26T10:45:04.118Z,97793.00
2022-10-26T10:47:35.490Z,97806.00
2022-10-26T10:50:08.177Z,97810.00
2022-10-26T10:52:37.384Z,97810.00
2022-10-26T10:55:20.456Z,97803.00
2022-10-26T10:58:15.056Z,97814.00
2022-10-26T11:00:49.020Z,97810.00
2022-10-26T11:03:41.774Z,97809.00
2022-10-26T11:06:18.325Z,97822.00
2022-10-26T11:08:54.540Z,97820.00
2022-10-26T11:11:32.933Z,97821.00
2022-10-26T11:14:10.198Z,97815.00
2022-10-26T11:16:46.669Z,97824.00
2022-10-26T11:19:25.254Z,97815.00
2022-10-26T11:21:56.146Z,97823.00
2022-10-26T11:24:30.553Z,97827.00
2022-10-26T11:27:11.942Z,97827.00
2022-10-26T11:29:52.347Z,97819.00
2022-10-26T11:32:26.290Z,97830.00
2022-10-26T11:35:04.542Z,97826.00
2022-10-26T11:37:44.300Z,97835.00
2022-10-26T11:40:29.080Z,97832.00
2022-10-26T11:43:15.020Z,97844.00
2022-10-26T11:45:46.791Z,97845.00
2022-10-26T11:48:22.582Z,97853.00
2022-10-26T11:50:55.298Z,97856.00
2022-10-26T11:53:30.074Z,97849.00
2022-10-26T11:56:00.281Z,97852.00
2022-10-26T11:58:32.105Z,97853.00
2022-10-26T12:01:08.845Z,97853.00
2022-10-26T12:03:45.507Z,97845.00
2022-10-26T12:06:18.298Z,97855.00
2022-10-26T12:08:52.924Z,97869.00
2022-10-26T12:11:37.842Z,97855.00
2022-10-26T12:14:20.720Z,97863.00
2022-10-26T12:17:01.046Z,97858.00
2022-10-26T12:19:36.966Z,97866.00
2022-10-26T12:22:06.069Z,97861.00
2022-10-26T12:24:35.373Z,97865.00
2022-10-26T12:27:05.820Z,97860.00
2022-10-26T12:29:49.903Z,97860.00
2022-10-26T12:32:54.535Z,97870.00
2022-10-26T12:35:44.167Z,97877.00
2022-10-26T12:39:00.134Z,97865.00
2022-10-26T12:41:29.518Z,97870.00
2022-10-26T12:44:35.169Z,97873.00
2022-10-26T12:47:06.470Z,97872.00
2022-10-26T12:50:19.304Z,97868.00
2022-10-26T12:52:54.536Z,97867.00
2022-10-26T12:56:13.305Z,97867.00
2022-10-26T12:59:18.649Z,97884.00
2022-10-26T13:02:31.492Z,97870.00
2022-10-26T13:05:34.043Z,97884.00
2022-10-26T13:08:05.011Z,97885.00
2022-10-26T13:10:33.812Z,97882.00
2022-10-26T13:13:05.287Z,97890.00
2022-10-26T13:15:40.389Z,97889.00
2022-10-26T13:18:19.522Z,97888.00
2022-10-26T13:21:03.828Z,97892.00
2022-10-26T13:23:35.112Z,97887.00
2022-10-26T13:26:11.940Z,97892.00
2022-10-26T13:28:50.407Z,97883.00
2022-10-26T13:31:56.845Z,97888.00
2022-10-26T13:34:32.044Z,97895.00
2022-10-26T13:37:15.133Z,97878.00
2022-10-26T13:39:47.447Z,97885.00
2022-10-26T13:42:20.670Z,97889.00
2022-10-26T13:44:55.252Z,97889.00
2022-10-26T13:47:29.695Z,97896.00
2022-10-26T13:50:06.582Z,97903.00
2022-10-26T13:52:40.747Z,97890.00
2022-10-26T13:55:19.630Z,97893.00
2022-10-26T13:58:16.383Z,97892.00
2022-10-26T14:01:05.323Z,97901.00
2022-10-26T14:03:33.561Z,97900.00
2022-10-26T14:06:06.695Z,97898.00
2022-10-26T14:08:34.895Z,97902.00
2022-10-26T14:11:04.144Z,97906.00
2022-10-26T14:13:39.054Z,97903.00
2022-10-26T14:16:14.310Z,97906.00
2022-10-26T14:18:46.285Z,97905.00
2022-10-26T14:21:20.854Z,97897.00
2022-10-26T14:23:52.313Z,97899.00
2022-10-26T14:26:22.502Z,97902.00
2022-10-26T14:28:53.800Z,97913.00
2022-10-26T14:31:28.638Z,97932.00
2022-10-26T14:34:01.442Z,97933.00
2022-10-26T14:36:38.681Z,97930.00
2022-10-26T14:39:15.318Z,97923.00
2022-10-26T14:41:44.371Z,97929.00
2022-10-26T14:44:20.335Z,97938.00
2022-10-26T14:46:49.354Z,97935.00
2022-10-26T14:49:22.637Z,97932.00
2022-10-26T14:51:59.422Z,97940.00
2022-10-26T14:54:29.919Z,97937.00
2022-10-26T14:56:58.400Z,97936.00
2022-10-26T14:59:29.483Z,97939.00
2022-10-26T15:02:00.612Z,97937.00
2022-10-26T15:04:36.559Z,97931.00
2022-10-26T15:07:19.298Z,97937.00
2022-10-26T15:09:50.142Z,97945.00
2022-10-26T15:12:32.580Z,97956.00
2022-10-26T15:17:57.529Z,97953.00
2022-10-26T15:20:28.609Z,97961.00
2022-10-26T15:23:01.362Z,97954.00
2022-10-26T15:25:33.371Z,97962.00
2022-10-26T15:28:12.193Z,97964.00
2022-10-26T15:30:40.463Z,97965.00
2022-10-26T15:33:22.039Z,97971.00
2022-10-26T15:35:50.583Z,97965.00
2022-10-26T15:38:20.721Z,97966.00
2022-10-26T15:40:48.854Z,97975.00
2022-10-26T15:43:16.981Z,97974.00
2022-10-26T15:45:49.096Z,97975.00
2022-10-26T15:48:23.779Z,97986.00
2022-10-26T15:50:51.943Z,97984.00
2022-10-26T15:53:27.391Z,97982.00
2022-10-26T15:55:58.865Z,97979.00
2022-10-26T15:58:28.273Z,97971.00
2022-10-26T16:00:56.422Z,97982.00
2022-10-26T16:03:27.043Z,97986.00
2022-10-26T16:06:00.041Z,97986.00
2022-10-26T16:08:32.442Z,97982.00
2022-10-26T16:11:00.725Z,97984.00
2022-10-26T16:13:30.564Z,97999.00
2022-10-26T16:15:59.239Z,97995.00
2022-10-26T16:18:27.364Z,98007.00
2022-10-26T16:20:55.497Z,98005.00
2022-10-26T16:23:23.611Z,98010.00
2022-10-26T16:25:53.260Z,98000.00
2022-10-26T16:28:21.345Z,98010.00
2022-10-26T16:30:49.526Z,98022.00
2022-10-26T16:33:17.607Z,98004.00
2022-10-26T16:35:45.724Z,98011.00
2022-10-26T16:38:13.877Z,98022.00
2022-10-26T16:40:44.472Z,98030.00
2022-10-26T16:43:13.884Z,98031.00
2022-10-26T16:45:42.732Z,98030.00
2022-10-26T16:48:15.177Z,98032.00
2022-10-26T16:50:43.257Z,98044.00
2022-10-26T16:53:11.375Z,98036.00
2022-10-26T16:55:39.569Z,98041.00
2022-10-26T16:58:07.723Z,98061.00
2022-10-26T17:00:38.402Z,98053.00
2022-10-26T17:03:06.597Z,98062.00
2022-10-26T17:05:34.732Z,98068.00
2022-10-26T17:08:02.820Z,98067.00
2022-10-26T17:10:30.936Z,98059.00
2022-10-26T17:12:59.050Z,98061.00
2022-10-26T17:15:29.010Z,98067.00
2022-10-26T17:17:58.744Z,98072.00
2022-10-26T17:20:26.951Z,98070.00
2022-10-26T17:22:57.322Z,98081.00
2022-10-26T17:25:26.326Z,98086.00
2022-10-26T17:27:55.357Z,98084.00
2022-10-26T17:30:23.615Z,98095.00
2022-10-26T17:32:52.170Z,98101.00
2022-10-26T17:35:21.965Z,98101.00
2022-10-26T17:37:50.349Z,98105.00
2022-10-26T17:40:18.747Z,98115.00
2022-10-26T17:42:47.031Z,98102.00
2022-10-26T17:45:15.185Z,98110.00
2022-10-26T17:47:43.820Z,98112.00
2022-10-26T17:50:12.556Z,98113.00
2022-10-26T17:52:42.054Z,98121.00
2022-10-26T17:55:10.699Z,98116.00
2022-10-26T17:57:38.814Z,98121.00
2022-10-26T18:00:08.445Z,98124.00
2022-10-26T18:02:42.316Z,98114.00
2022-10-26T18:05:11.679Z,98123.00
2022-10-26T18:07:41.250Z,98128.00
2022-10-26T18:10:32.860Z,98133.00
2022-10-26T18:12:58.767Z,98132.00
2022-10-26T18:15:26.950Z,98148.00
2022-10-26T18:17:58.295Z,98144.00
2022-10-26T18:20:29.091Z,98149.00
2022-10-26T18:22:58.624Z,98151.00
2022-10-26T18:25:27.229Z,98147.00
2022-10-26T18:27:55.695Z,98154.00
2022-10-26T18:30:25.742Z,98156.00
2022-10-26T18:32:54.517Z,98151.00
2022-10-26T18:35:24.041Z,98154.00
2022-10-26T18:37:52.756Z,98156.00
2022-10-26T18:40:22.727Z,98162.00
2022-10-26T18:42:51.282Z,98168.00
2022-10-26T18:45:19.628Z,98167.00
2022-10-26T18:47:48.171Z,98156.00
2022-10-26T18:50:17.202Z,98168.00
2022-10-26T18:52:45.978Z,98170.00
2022-10-26T18:55:14.100Z,98177.00
2022-10-26T18:57:43.665Z,98177.00
2022-10-26T19:00:14.145Z,98180.00
2022-10-26T19:02:42.283Z,98183.00
2022-10-26T19:05:10.736Z,98181.00
2022-10-26T19:07:39.842Z,98180.00
2022-10-26T19:10:09.916Z,98180.00
2022-10-26T19:12:38.080Z,98179.00
2022-10-26T19:15:08.940Z,98182.00
2022-10-26T19:17:37.069Z,98186.00
2022-10-26T19:20:06.593Z,98196.00
2022-10-26T19:22:34.970Z,98192.00
2022-10-26T19:25:03.826Z,98193.00
2022-10-26T19:27:32.037Z,98190.00
2022-10-26T19:30:00.137Z,98200.00
2022-10-26T19:32:30.166Z,98217.00
2022-10-26T19:34:58.288Z,98204.00
2022-10-26T19:37:28.484Z,98208.00
2022-10-26T19:39:56.882Z,98218.00
2022-10-26T19:42:25.074Z,98214.00
2022-10-26T19:44:53.181Z,98203.00
2022-10-26T19:47:21.435Z,98211.00
2022-10-26T19:49:50.866Z,98214.00
2022-10-26T19:54:52.067Z,98216.00
2022-10-26T19:57:20.211Z,98215.00
2022-10-26T19:59:48.382Z,98225.00
2022-10-26T20:02:16.536Z,98239.00
2022-10-26T20:04:45.273Z,98241.00
2022-10-26T20:07:15.654Z,98228.00
2022-10-26T20:09:43.853Z,98243.00
2022-10-26T20:12:12.637Z,98248.00
2022-10-26T20:14:41.687Z,98245.00
2022-10-26T20:17:09.801Z,98242.00
2022-10-26T20:19:37.940Z,98244.00
2022-10-26T20:22:06.153Z,98259.00
2022-10-26T20:24:35.632Z,98263.00
2022-10-26T20:27:03.796Z,98254.00
2022-10-26T20:29:32.008Z,98266.00
2022-10-26T20:32:00.157Z,98267.00
2022-10-26T20:37:01.741Z,98262.00
2022-10-26T20:39:30.559Z,98255.00
2022-10-26T20:42:01.168Z,98258.00
2022-10-26T20:44:36.306Z,98266.00
2022-10-26T20:47:05.255Z,98268.00
2022-10-26T20:49:34.207Z,98263.00
2022-10-26T20:52:20.649Z,98253.00
2022-10-26T20:55:00.290Z,98275.00
2022-10-26T20:57:35.577Z,98275.00
2022-10-26T21:00:08.966Z,98278.00
2022-10-26T21:02:37.379Z,98282.00
2022-10-26T21:05:06.760Z,98283.00
2022-10-26T21:07:34.805Z,98295.00
2022-10-26T21:10:02.897Z,98285.00
2022-10-26T21:12:32.425Z,98299.00
2022-10-26T21:15:00.483Z,98294.00
2022-10-26T21:17:28.649Z,98286.00
2022-10-26T21:19:56.770Z,98288.00
2022-10-26T21:22:24.917Z,98298.00
2022-10-26T21:24:53.103Z,98295.00
2022-10-26T21:27:21.206Z,98287.00
2022-10-26T21:29:50.711Z,98303.00
2022-10-26T21:32:18.835Z,98304.00
2022-10-26T21:34:46.943Z,98299.00
2022-10-26T21:37:15.044Z,98297.00
2022-10-26T21:39:43.127Z,98297.00
2022-10-26T21:42:11.275Z,98299.00
2022-10-26T21:44:41.390Z,98294.00
2022-10-26T21:47:12.583Z,98299.00
2022-10-26T21:52:14.383Z,98288.00
2022-10-26T21:54:42.500Z,98296.00
2022-10-26T21:57:10.656Z,98301.00
2022-10-26T21:59:38.777Z,98309.00
2022-10-26T22:02:06.989Z,98297.00
2022-10-26T22:04:36.516Z,98305.00
2022-10-26T22:07:04.665Z,98308.00
2022-10-26T22:09:37.393Z,98306.00
2022-10-26T22:12:13.075Z,98310.00
2022-10-26T22:14:41.220Z,98310.00
2022-10-26T22:17:09.371Z,98312.00
2022-10-26T22:19:39.067Z,98304.00
2022-10-26T22:22:07.329Z,98315.00
2022-10-26T22:24:35.664Z,98308.00
2022-10-26T22:27:03.970Z,98319.00
2022-10-26T22:29:32.214Z,98314.00
2022-10-26T22:32:00.486Z,98319.00
2022-10-26T22:34:28.741Z,98312.00
2022-10-26T22:36:58.211Z,98318.00
2022-10-26T22:39:26.297Z,98301.00
2022-10-26T22:41:57.017Z,98312.00
2022-10-26T22:44:25.865Z,98312.00
2022-10-26T22:46:53.948Z,98313.00
2022-10-26T22:49:22.125Z,98321.00
2022-10-26T22:51:50.183Z,98316.00
2022-10-26T22:54:19.725Z,98321.00
2022-10-26T22:56:47.811Z,98319.00
2022-10-26T22:59:15.930Z,98334.00
2022-10-26T23:01:44.501Z,98324.00
2022-10-26T23:04:13.425Z,98323.00
2022-10-26T23:06:41.777Z,98331.00
2022-10-26T23:09:10.079Z,98330.00
2022-10-26T23:11:39.532Z,98329.00
2022-10-26T23:14:07.706Z,98333.00
2022-10-26T23:16:35.777Z,98329.00
2022-10-26T23:19:04.042Z,98335.00
2022-10-26T23:21:32.171Z,98337.00
2022-10-26T23:24:00.324Z,98332.00
2022-10-26T23:26:28.477Z,98342.00
2022-10-26T23:28:57.949Z,98331.00
2022-10-26T23:31:28.715Z,98337.00
2022-10-26T23:33:57.732Z,98335.00
2022-10-26T23:36:26.624Z,98330.00
2022-10-26T23:38:54.715Z,98346.00
2022-10-26T23:41:23.063Z,98358.00
2022-10-26T23:43:51.236Z,98356.00
2022-10-26T23:46:20.683Z,98357.00
2022-10-26T23:48:48.816Z,98357.00
2022-10-26T23:51:16.894Z,98356.00
2022-10-26T23:53:44.946Z,98357.00
2022-10-26T23:56:13.019Z,98349.00
2022-10-26T23:58:41.102Z,98357.00
